^^
Station Historical Data
Daily Summary for July 21, 2017 Units:  Both    English   Metric
« Previous Day
Next Day »
Daily Weekly Monthly Yearly Custom
  High: Low: Average:
Temperature: 76.3 °F /  24.6 °C 39.0 °F /  3.9 °C 57.2 °F /  14 °C
Dew Point: 19.0 °F /  -7.2 °C 9.9 °F /  -12.3 °C 14.4 °F /  -9.8 °C
Humidity: 34% 9% 20%
Wind Speed: 9.0mph /  14.5km/h - 0.4mph /  0.6km/h
Wind Gust: 9.0mph /  14.5km/h - -
Wind- - SSW
Pressure: 30.14 in /  1020.5 hPa 29.98 in /  1015.1 hPa -
Precipitation: 0.00 in /  0 mm    
Historical Graphs
 
 
Tabular Data for July 21, 2017
Time Temperature Dew Point Pressure Wind Wind Speed Wind Gust Humidity Rainfall Rate (Hourly) solar Conditions
00:01 52.0 °F /  11.1 °C 10.9 °F /  -11.7 °C 30.14in /  1020.5hPa ENE 4.9mph /  7.9km/h 5.0mph /  8km/h 19% 0.00in /  0mm 0.0 W/m2
00:07 52.2 °F /  11.2 °C 9.9 °F /  -12.3 °C 30.14in /  1020.5hPa Calm   3.0mph /  4.8km/h 18% 0.00in /  0mm 0.0 W/m2
00:13 52.2 °F /  11.2 °C 9.9 °F /  -12.3 °C 30.14in /  1020.5hPa Calm   1.0mph /  1.6km/h 18% 0.00in /  0mm 0.0 W/m2
00:19 52.2 °F /  11.2 °C 11.1 °F /  -11.6 °C 30.14in /  1020.5hPa Calm   1.0mph /  1.6km/h 19% 0.00in /  0mm 0.0 W/m2
00:26 52.0 °F /  11.1 °C 10.9 °F /  -11.7 °C 30.14in /  1020.5hPa Calm     19% 0.00in /  0mm 0.0 W/m2
00:32 51.4 °F /  10.8 °C 11.7 °F /  -11.3 °C 30.14in /  1020.5hPa Calm   1.0mph /  1.6km/h 20% 0.00in /  0mm 0.0 W/m2
00:38 51.1 °F /  10.6 °C 11.3 °F /  -11.5 °C 30.14in /  1020.5hPa Calm   1.0mph /  1.6km/h 20% 0.00in /  0mm 0.0 W/m2
00:44 50.5 °F /  10.3 °C 12.0 °F /  -11.1 °C 30.13in /  1020.2hPa Calm     21% 0.00in /  0mm 0.0 W/m2
00:50 50.0 °F /  10 °C 11.7 °F /  -11.3 °C 30.13in /  1020.2hPa Calm     21% 0.00in /  0mm 0.0 W/m2
00:56 49.5 °F /  9.7 °C 12.2 °F /  -11 °C 30.13in /  1020.2hPa Calm   1.0mph /  1.6km/h 22% 0.00in /  0mm 0.0 W/m2
01:02 48.9 °F /  9.4 °C 11.7 °F /  -11.3 °C 30.13in /  1020.2hPa Calm     22% 0.00in /  0mm 0.0 W/m2
01:09 48.6 °F /  9.2 °C 10.4 °F /  -12 °C 30.12in /  1019.9hPa Calm   3.0mph /  4.8km/h 21% 0.00in /  0mm 0.0 W/m2
01:15 48.6 °F /  9.2 °C 10.4 °F /  -12 °C 30.12in /  1019.9hPa Calm   3.0mph /  4.8km/h 21% 0.00in /  0mm 0.0 W/m2
01:21 48.7 °F /  9.3 °C 10.6 °F /  -11.9 °C 30.12in /  1019.9hPa Calm   4.0mph /  6.4km/h 21% 0.00in /  0mm 0.0 W/m2
01:27 48.7 °F /  9.3 °C 11.7 °F /  -11.3 °C 30.12in /  1019.9hPa Calm   1.0mph /  1.6km/h 22% 0.00in /  0mm 0.0 W/m2
01:33 48.7 °F /  9.3 °C 10.6 °F /  -11.9 °C 30.12in /  1019.9hPa ENE 0.9mph /  1.4km/h 3.0mph /  4.8km/h 21% 0.00in /  0mm 0.0 W/m2
01:39 48.6 °F /  9.2 °C 10.4 °F /  -12 °C 30.12in /  1019.9hPa Calm   1.0mph /  1.6km/h 21% 0.00in /  0mm 0.0 W/m2
01:46 48.4 °F /  9.1 °C 11.3 °F /  -11.5 °C 30.12in /  1019.9hPa SE 0.9mph /  1.4km/h 2.0mph /  3.2km/h 22% 0.00in /  0mm 0.0 W/m2
01:52 48.4 °F /  9.1 °C 10.2 °F /  -12.1 °C 30.12in /  1019.9hPa SE 2.0mph /  3.2km/h 2.0mph /  3.2km/h 21% 0.00in /  0mm 0.0 W/m2
01:58 48.2 °F /  9 °C 11.1 °F /  -11.6 °C 30.11in /  1019.5hPa Calm   1.0mph /  1.6km/h 22% 0.00in /  0mm 0.0 W/m2
02:04 47.8 °F /  8.8 °C 10.8 °F /  -11.8 °C 30.11in /  1019.5hPa Calm   1.0mph /  1.6km/h 22% 0.00in /  0mm 0.0 W/m2
02:10 47.7 °F /  8.7 °C 10.6 °F /  -11.9 °C 30.11in /  1019.5hPa Calm     22% 0.00in /  0mm 0.0 W/m2
02:16 47.3 °F /  8.5 °C 10.4 °F /  -12 °C 30.11in /  1019.5hPa Calm   1.0mph /  1.6km/h 22% 0.00in /  0mm 0.0 W/m2
02:22 46.9 °F /  8.3 °C 10.0 °F /  -12.2 °C 30.11in /  1019.5hPa Calm   2.0mph /  3.2km/h 22% 0.00in /  0mm 0.0 W/m2
02:29 46.8 °F /  8.2 °C 9.9 °F /  -12.3 °C 30.11in /  1019.5hPa Calm   1.0mph /  1.6km/h 22% 0.00in /  0mm 0.0 W/m2
02:35 46.6 °F /  8.1 °C 10.8 °F /  -11.8 °C 30.11in /  1019.5hPa Calm   1.0mph /  1.6km/h 23% 0.00in /  0mm 0.0 W/m2
02:41 46.2 °F /  7.9 °C 10.4 °F /  -12 °C 30.11in /  1019.5hPa Calm     23% 0.00in /  0mm 0.0 W/m2
02:47 45.9 °F /  7.7 °C 10.2 °F /  -12.1 °C 30.11in /  1019.5hPa Calm     23% 0.00in /  0mm 0.0 W/m2
02:53 45.7 °F /  7.6 °C 10.0 °F /  -12.2 °C 30.11in /  1019.5hPa Calm   1.0mph /  1.6km/h 23% 0.00in /  0mm 0.0 W/m2
02:59 45.5 °F /  7.5 °C 10.8 °F /  -11.8 °C 30.11in /  1019.5hPa Calm     24% 0.00in /  0mm 0.0 W/m2
03:05 45.1 °F /  7.3 °C 10.4 °F /  -12 °C 30.11in /  1019.5hPa Calm   1.0mph /  1.6km/h 24% 0.00in /  0mm 0.0 W/m2
03:12 45.0 °F /  7.2 °C 11.3 °F /  -11.5 °C 30.11in /  1019.5hPa Calm     25% 0.00in /  0mm 0.0 W/m2
03:18 44.8 °F /  7.1 °C 11.1 °F /  -11.6 °C 30.10in /  1019.2hPa Calm   1.0mph /  1.6km/h 25% 0.00in /  0mm 0.0 W/m2
03:24 44.4 °F /  6.9 °C 9.9 °F /  -12.3 °C 30.10in /  1019.2hPa Calm   3.0mph /  4.8km/h 24% 0.00in /  0mm 0.0 W/m2
03:30 44.4 °F /  6.9 °C 10.8 °F /  -11.8 °C 30.10in /  1019.2hPa Calm   2.0mph /  3.2km/h 25% 0.00in /  0mm 0.0 W/m2
03:36 44.6 °F /  7 °C 10.9 °F /  -11.7 °C 30.10in /  1019.2hPa Calm   2.0mph /  3.2km/h 25% 0.00in /  0mm 0.0 W/m2
03:42 44.6 °F /  7 °C 10.9 °F /  -11.7 °C 30.10in /  1019.2hPa Calm   1.0mph /  1.6km/h 25% 0.00in /  0mm 0.0 W/m2
03:48 44.6 °F /  7 °C 10.9 °F /  -11.7 °C 30.09in /  1018.8hPa Calm   1.0mph /  1.6km/h 25% 0.00in /  0mm 0.0 W/m2
03:54 44.4 °F /  6.9 °C 10.8 °F /  -11.8 °C 30.09in /  1018.8hPa Calm     25% 0.00in /  0mm 0.0 W/m2
04:00 44.1 °F /  6.7 °C 10.4 °F /  -12 °C 30.09in /  1018.8hPa Calm     25% 0.00in /  0mm 0.0 W/m2
04:07 43.9 °F /  6.6 °C 12.9 °F /  -10.6 °C 30.09in /  1018.8hPa Calm     28% 0.00in /  0mm 0.0 W/m2
04:13 43.5 °F /  6.4 °C 11.7 °F /  -11.3 °C 30.09in /  1018.8hPa Calm     27% 0.00in /  0mm 0.0 W/m2
04:19 43.0 °F /  6.1 °C 12.0 °F /  -11.1 °C 30.09in /  1018.8hPa Calm     28% 0.00in /  0mm 0.0 W/m2
04:25 42.6 °F /  5.9 °C 11.8 °F /  -11.2 °C 30.09in /  1018.8hPa Calm     28% 0.00in /  0mm 0.0 W/m2
04:31 42.4 °F /  5.8 °C 11.7 °F /  -11.3 °C 30.09in /  1018.8hPa Calm     28% 0.00in /  0mm 0.0 W/m2
04:37 42.1 °F /  5.6 °C 12.0 °F /  -11.1 °C 30.09in /  1018.8hPa Calm     29% 0.00in /  0mm 0.0 W/m2
04:43 41.7 °F /  5.4 °C 12.6 °F /  -10.8 °C 30.09in /  1018.8hPa Calm     30% 0.00in /  0mm 0.0 W/m2
04:49 41.5 °F /  5.3 °C 11.7 °F /  -11.3 °C 30.09in /  1018.8hPa Calm     29% 0.00in /  0mm 0.0 W/m2
04:55 41.2 °F /  5.1 °C 12.0 °F /  -11.1 °C 30.10in /  1019.2hPa Calm     30% 0.00in /  0mm 0.0 W/m2
05:01 40.8 °F /  4.9 °C 12.6 °F /  -10.8 °C 30.10in /  1019.2hPa Calm     31% 0.00in /  0mm 0.0 W/m2
05:07 40.5 °F /  4.7 °C 12.9 °F /  -10.6 °C 30.10in /  1019.2hPa Calm     32% 0.00in /  0mm 0.0 W/m2
05:13 40.3 °F /  4.6 °C 14.2 °F /  -9.9 °C 30.10in /  1019.2hPa Calm     34% 0.00in /  0mm 0.0 W/m2
05:19 39.7 °F /  4.3 °C 12.9 °F /  -10.6 °C 30.10in /  1019.2hPa Calm     33% 0.00in /  0mm 0.0 W/m2
05:25 39.6 °F /  4.2 °C 12.2 °F /  -11 °C 30.10in /  1019.2hPa Calm     32% 0.00in /  0mm 0.0 W/m2
05:31 39.4 °F /  4.1 °C 12.0 °F /  -11.1 °C 30.10in /  1019.2hPa Calm     32% 0.00in /  0mm 0.0 W/m2
05:37 39.0 °F /  3.9 °C 12.4 °F /  -10.9 °C 30.10in /  1019.2hPa Calm   2.0mph /  3.2km/h 33% 0.00in /  0mm 0.0 W/m2
05:43 39.4 °F /  4.1 °C 12.0 °F /  -11.1 °C 30.11in /  1019.5hPa ESE 2.0mph /  3.2km/h 2.0mph /  3.2km/h 32% 0.00in /  0mm 0.0 W/m2
05:49 40.5 °F /  4.7 °C 11.5 °F /  -11.4 °C 30.10in /  1019.2hPa SE 0.9mph /  1.4km/h 3.0mph /  4.8km/h 30% 0.00in /  0mm 0.0 W/m2
05:55 41.2 °F /  5.1 °C 11.3 °F /  -11.5 °C 30.10in /  1019.2hPa East 0.9mph /  1.4km/h 4.0mph /  6.4km/h 29% 0.00in /  0mm 0.0 W/m2
06:01 41.5 °F /  5.3 °C 11.7 °F /  -11.3 °C 30.11in /  1019.5hPa Calm   1.0mph /  1.6km/h 29% 0.00in /  0mm 0.0 W/m2
06:07 41.7 °F /  5.4 °C 11.8 °F /  -11.2 °C 30.11in /  1019.5hPa SE 0.9mph /  1.4km/h 2.0mph /  3.2km/h 29% 0.00in /  0mm 0.0 W/m2
06:13 41.9 °F /  5.5 °C 12.0 °F /  -11.1 °C 30.11in /  1019.5hPa ENE 2.0mph /  3.2km/h 4.0mph /  6.4km/h 29% 0.00in /  0mm 0.0 W/m2
06:19 42.1 °F /  5.6 °C 11.3 °F /  -11.5 °C 30.11in /  1019.5hPa ENE 2.0mph /  3.2km/h 4.0mph /  6.4km/h 28% 0.00in /  0mm 0.0 W/m2
06:25 42.1 °F /  5.6 °C 10.6 °F /  -11.9 °C 30.11in /  1019.5hPa Calm   5.0mph /  8km/h 27% 0.00in /  0mm 0.0 W/m2
06:31 42.3 °F /  5.7 °C 11.5 °F /  -11.4 °C 30.11in /  1019.5hPa ESE 2.0mph /  3.2km/h 5.0mph /  8km/h 28% 0.00in /  0mm 0.0 W/m2
06:36 42.4 °F /  5.8 °C 11.7 °F /  -11.3 °C 30.11in /  1019.5hPa ESE 2.9mph /  4.7km/h 3.0mph /  4.8km/h 28% 0.00in /  0mm 5.0 W/m2
06:42 42.6 °F /  5.9 °C 11.8 °F /  -11.2 °C 30.11in /  1019.5hPa NE 0.9mph /  1.4km/h 3.0mph /  4.8km/h 28% 0.00in /  0mm 7.0 W/m2
06:47 42.6 °F /  5.9 °C 10.9 °F /  -11.7 °C 30.12in /  1019.9hPa ESE 0.9mph /  1.4km/h 6.0mph /  9.7km/h 27% 0.00in /  0mm 9.0 W/m2
06:53 42.8 °F /  6 °C 11.1 °F /  -11.6 °C 30.12in /  1019.9hPa Calm   4.0mph /  6.4km/h 27% 0.00in /  0mm 11.0 W/m2
06:59 43.0 °F /  6.1 °C 11.3 °F /  -11.5 °C 30.12in /  1019.9hPa ESE 0.9mph /  1.4km/h 4.0mph /  6.4km/h 27% 0.00in /  0mm 12.0 W/m2
07:05 43.2 °F /  6.2 °C 12.2 °F /  -11 °C 30.12in /  1019.9hPa Calm   3.0mph /  4.8km/h 28% 0.00in /  0mm 12.0 W/m2
07:11 43.3 °F /  6.3 °C 12.4 °F /  -10.9 °C 30.12in /  1019.9hPa Calm   1.0mph /  1.6km/h 28% 0.00in /  0mm 14.0 W/m2
07:17 43.5 °F /  6.4 °C 14.9 °F /  -9.5 °C 30.12in /  1019.9hPa Calm     31% 0.00in /  0mm 16.0 W/m2
07:23 43.5 °F /  6.4 °C 12.6 °F /  -10.8 °C 30.12in /  1019.9hPa Calm   1.0mph /  1.6km/h 28% 0.00in /  0mm 16.0 W/m2
07:29 43.9 °F /  6.6 °C 13.6 °F /  -10.2 °C 30.12in /  1019.9hPa Calm     29% 0.00in /  0mm 18.0 W/m2
07:35 44.1 °F /  6.7 °C 13.8 °F /  -10.1 °C 30.12in /  1019.9hPa Calm   1.0mph /  1.6km/h 29% 0.00in /  0mm 19.0 W/m2
07:41 44.2 °F /  6.8 °C 14.0 °F /  -10 °C 30.12in /  1019.9hPa Calm     29% 0.00in /  0mm 21.0 W/m2
07:47 44.8 °F /  7.1 °C 15.3 °F /  -9.3 °C 30.12in /  1019.9hPa Calm     30% 0.00in /  0mm 21.0 W/m2
07:53 45.3 °F /  7.4 °C 16.5 °F /  -8.6 °C 30.12in /  1019.9hPa Calm     31% 0.00in /  0mm 23.0 W/m2
07:59 45.9 °F /  7.7 °C 16.2 °F /  -8.8 °C 30.12in /  1019.9hPa Calm     30% 0.00in /  0mm 25.0 W/m2
08:05 46.6 °F /  8.1 °C 16.9 °F /  -8.4 °C 30.12in /  1019.9hPa Calm     30% 0.00in /  0mm 25.0 W/m2
08:11 48.0 °F /  8.9 °C 17.2 °F /  -8.2 °C 30.12in /  1019.9hPa Calm   1.0mph /  1.6km/h 29% 0.00in /  0mm 28.0 W/m2
08:17 50.0 °F /  10 °C 19.0 °F /  -7.2 °C 30.12in /  1019.9hPa Calm   2.0mph /  3.2km/h 29% 0.00in /  0mm 352.0 W/m2
08:23 52.2 °F /  11.2 °C 17.4 °F /  -8.1 °C 30.12in /  1019.9hPa Calm   1.0mph /  1.6km/h 25% 0.00in /  0mm 371.0 W/m2
08:29 54.7 °F /  12.6 °C 17.6 °F /  -8 °C 30.12in /  1019.9hPa NNE 2.0mph /  3.2km/h 5.0mph /  8km/h 23% 0.00in /  0mm 390.0 W/m2
08:35 57.6 °F /  14.2 °C 19.0 °F /  -7.2 °C 30.12in /  1019.9hPa East 2.0mph /  3.2km/h 2.0mph /  3.2km/h 22% 0.00in /  0mm 410.0 W/m2
08:41 59.7 °F /  15.4 °C 18.5 °F /  -7.5 °C 30.12in /  1019.9hPa East 2.0mph /  3.2km/h 3.0mph /  4.8km/h 20% 0.00in /  0mm 429.0 W/m2
08:47 61.3 °F /  16.3 °C 17.4 °F /  -8.1 °C 30.12in /  1019.9hPa Calm   2.0mph /  3.2km/h 18% 0.00in /  0mm 446.0 W/m2
08:53 62.2 °F /  16.8 °C 18.1 °F /  -7.7 °C 30.12in /  1019.9hPa Calm   3.0mph /  4.8km/h 18% 0.00in /  0mm 466.0 W/m2
08:59 63.3 °F /  17.4 °C 19.0 °F /  -7.2 °C 30.12in /  1019.9hPa Calm   1.0mph /  1.6km/h 18% 0.00in /  0mm 483.0 W/m2
09:05 64.4 °F /  18 °C 17.2 °F /  -8.2 °C 30.12in /  1019.9hPa Calm     16% 0.00in /  0mm 499.0 W/m2
09:11 65.7 °F /  18.7 °C 18.3 °F /  -7.6 °C 30.12in /  1019.9hPa Calm     16% 0.00in /  0mm 517.0 W/m2
09:17 66.2 °F /  19 °C 18.7 °F /  -7.4 °C 30.12in /  1019.9hPa Calm   2.0mph /  3.2km/h 16% 0.00in /  0mm 533.0 W/m2
09:23 66.6 °F /  19.2 °C 19.0 °F /  -7.2 °C 30.12in /  1019.9hPa Calm   3.0mph /  4.8km/h 16% 0.00in /  0mm 547.0 W/m2
09:29 66.2 °F /  19 °C 18.7 °F /  -7.4 °C 30.12in /  1019.9hPa NNW 2.0mph /  3.2km/h 3.0mph /  4.8km/h 16% 0.00in /  0mm 564.0 W/m2
09:35 66.7 °F /  19.3 °C 17.6 °F /  -8 °C 30.12in /  1019.9hPa Calm     15% 0.00in /  0mm 578.0 W/m2
09:41 67.5 °F /  19.7 °C 18.1 °F /  -7.7 °C 30.12in /  1019.9hPa Calm   1.0mph /  1.6km/h 15% 0.00in /  0mm 591.0 W/m2
09:47 67.6 °F /  19.8 °C 18.3 °F /  -7.6 °C 30.12in /  1019.9hPa Calm     15% 0.00in /  0mm 605.0 W/m2
09:53 68.2 °F /  20.1 °C 18.7 °F /  -7.4 °C 30.12in /  1019.9hPa Calm     15% 0.00in /  0mm 617.0 W/m2
09:59 68.0 °F /  20 °C 18.7 °F /  -7.4 °C 30.11in /  1019.5hPa Calm     15% 0.00in /  0mm 629.0 W/m2
10:05 68.4 °F /  20.2 °C 17.2 °F /  -8.2 °C 30.11in /  1019.5hPa WSW 0.9mph /  1.4km/h 3.0mph /  4.8km/h 14% 0.00in /  0mm 642.0 W/m2
10:11 68.5 °F /  20.3 °C 17.4 °F /  -8.1 °C 30.11in /  1019.5hPa Calm     14% 0.00in /  0mm 650.0 W/m2
10:17 69.1 °F /  20.6 °C 18.0 °F /  -7.8 °C 30.11in /  1019.5hPa Calm   3.0mph /  4.8km/h 14% 0.00in /  0mm 659.0 W/m2
10:23 69.6 °F /  20.9 °C 18.3 °F /  -7.6 °C 30.10in /  1019.2hPa Calm   5.0mph /  8km/h 14% 0.00in /  0mm 670.0 W/m2
10:29 70.0 °F /  21.1 °C 18.5 °F /  -7.5 °C 30.10in /  1019.2hPa Calm   1.0mph /  1.6km/h 14% 0.00in /  0mm 680.0 W/m2
10:35 70.0 °F /  21.1 °C 18.5 °F /  -7.5 °C 30.10in /  1019.2hPa Calm   2.0mph /  3.2km/h 14% 0.00in /  0mm 689.0 W/m2
10:42 70.0 °F /  21.1 °C 18.5 °F /  -7.5 °C 30.10in /  1019.2hPa Calm   1.0mph /  1.6km/h 14% 0.00in /  0mm 696.0 W/m2
10:47 70.2 °F /  21.2 °C 18.7 °F /  -7.4 °C 30.09in /  1018.8hPa Calm   1.0mph /  1.6km/h 14% 0.00in /  0mm 703.0 W/m2
10:53 70.0 °F /  21.1 °C 16.9 °F /  -8.4 °C 30.09in /  1018.8hPa SW 2.0mph /  3.2km/h 3.0mph /  4.8km/h 13% 0.00in /  0mm 710.0 W/m2
10:59 70.3 °F /  21.3 °C 18.9 °F /  -7.3 °C 30.09in /  1018.8hPa Calm   1.0mph /  1.6km/h 14% 0.00in /  0mm 717.0 W/m2
11:05 70.3 °F /  21.3 °C 17.2 °F /  -8.2 °C 30.09in /  1018.8hPa West 2.0mph /  3.2km/h 4.0mph /  6.4km/h 13% 0.00in /  0mm 722.0 W/m2
11:11 70.5 °F /  21.4 °C 17.2 °F /  -8.2 °C 30.08in /  1018.5hPa WNW 0.9mph /  1.4km/h 3.0mph /  4.8km/h 13% 0.00in /  0mm 726.0 W/m2
11:18 70.9 °F /  21.6 °C 17.6 °F /  -8 °C 30.08in /  1018.5hPa Calm   4.0mph /  6.4km/h 13% 0.00in /  0mm 729.0 W/m2
11:23 71.2 °F /  21.8 °C 16.0 °F /  -8.9 °C 30.08in /  1018.5hPa Calm     12% 0.00in /  0mm 735.0 W/m2
11:29 71.1 °F /  21.7 °C 15.8 °F /  -9 °C 30.08in /  1018.5hPa Calm   3.0mph /  4.8km/h 12% 0.00in /  0mm 738.0 W/m2
11:36 71.2 °F /  21.8 °C 16.0 °F /  -8.9 °C 30.07in /  1018.2hPa SW 2.9mph /  4.7km/h 3.0mph /  4.8km/h 12% 0.00in /  0mm 742.0 W/m2
11:42 71.6 °F /  22 °C 16.3 °F /  -8.7 °C 30.07in /  1018.2hPa Calm   4.0mph /  6.4km/h 12% 0.00in /  0mm 745.0 W/m2
11:48 72.0 °F /  22.2 °C 16.5 °F /  -8.6 °C 30.06in /  1017.8hPa Calm   3.0mph /  4.8km/h 12% 0.00in /  0mm 745.0 W/m2
11:54 72.3 °F /  22.4 °C 16.9 °F /  -8.4 °C 30.06in /  1017.8hPa Calm   2.0mph /  3.2km/h 12% 0.00in /  0mm 745.0 W/m2
12:00 72.7 °F /  22.6 °C 17.1 °F /  -8.3 °C 30.06in /  1017.8hPa Calm   5.0mph /  8km/h 12% 0.00in /  0mm 742.0 W/m2
12:06 72.9 °F /  22.7 °C 17.2 °F /  -8.2 °C 30.05in /  1017.5hPa WSW 0.9mph /  1.4km/h 3.0mph /  4.8km/h 12% 0.00in /  0mm 733.0 W/m2
12:12 72.9 °F /  22.7 °C 17.2 °F /  -8.2 °C 30.05in /  1017.5hPa West 0.9mph /  1.4km/h 1.0mph /  1.6km/h 12% 0.00in /  0mm 733.0 W/m2
12:18 73.0 °F /  22.8 °C 15.4 °F /  -9.2 °C 30.04in /  1017.2hPa West 0.9mph /  1.4km/h 5.0mph /  8km/h 11% 0.00in /  0mm 737.0 W/m2
12:24 73.6 °F /  23.1 °C 15.8 °F /  -9 °C 30.04in /  1017.2hPa North 2.0mph /  3.2km/h 4.0mph /  6.4km/h 11% 0.00in /  0mm 731.0 W/m2
12:30 74.1 °F /  23.4 °C 16.2 °F /  -8.8 °C 30.03in /  1016.8hPa Calm   6.0mph /  9.7km/h 11% 0.00in /  0mm 729.0 W/m2
12:36 74.8 °F /  23.8 °C 14.5 °F /  -9.7 °C 30.03in /  1016.8hPa Calm   5.0mph /  8km/h 10% 0.00in /  0mm 722.0 W/m2
12:42 75.4 °F /  24.1 °C 17.2 °F /  -8.2 °C 30.02in /  1016.5hPa WNW 2.9mph /  4.7km/h 5.0mph /  8km/h 11% 0.00in /  0mm 714.0 W/m2
12:48 75.6 °F /  24.2 °C 15.1 °F /  -9.4 °C 30.02in /  1016.5hPa NNW 2.0mph /  3.2km/h 5.0mph /  8km/h 10% 0.00in /  0mm 708.0 W/m2
12:54 75.7 °F /  24.3 °C 15.3 °F /  -9.3 °C 30.02in /  1016.5hPa Calm   1.0mph /  1.6km/h 10% 0.00in /  0mm 705.0 W/m2
13:00 75.7 °F /  24.3 °C 15.3 °F /  -9.3 °C 30.01in /  1016.1hPa SW 0.9mph /  1.4km/h 5.0mph /  8km/h 10% 0.00in /  0mm 694.0 W/m2
13:06 75.6 °F /  24.2 °C 15.1 °F /  -9.4 °C 30.01in /  1016.1hPa NNW 0.9mph /  1.4km/h 4.0mph /  6.4km/h 10% 0.00in /  0mm 684.0 W/m2
13:12 75.7 °F /  24.3 °C 17.4 °F /  -8.1 °C 30.01in /  1016.1hPa SW 0.9mph /  1.4km/h 2.0mph /  3.2km/h 11% 0.00in /  0mm 675.0 W/m2
13:18 75.9 °F /  24.4 °C 15.4 °F /  -9.2 °C 30.01in /  1016.1hPa North 4.0mph /  6.4km/h 7.0mph /  11.3km/h 10% 0.00in /  0mm 668.0 W/m2
13:24 76.3 °F /  24.6 °C 15.6 °F /  -9.1 °C 30.00in /  1015.8hPa SW 6.0mph /  9.7km/h 7.0mph /  11.3km/h 10% 0.00in /  0mm 661.0 W/m2
13:30 75.7 °F /  24.3 °C 15.3 °F /  -9.3 °C 30.00in /  1015.8hPa NW 4.0mph /  6.4km/h 7.0mph /  11.3km/h 10% 0.00in /  0mm 647.0 W/m2
13:36 75.6 °F /  24.2 °C 15.1 °F /  -9.4 °C 29.99in /  1015.5hPa WNW 2.0mph /  3.2km/h 4.0mph /  6.4km/h 10% 0.00in /  0mm 638.0 W/m2
13:42 75.7 °F /  24.3 °C 15.3 °F /  -9.3 °C 29.99in /  1015.5hPa NNW 0.9mph /  1.4km/h 5.0mph /  8km/h 10% 0.00in /  0mm 624.0 W/m2
13:48 75.9 °F /  24.4 °C 15.4 °F /  -9.2 °C 29.99in /  1015.5hPa Calm   2.0mph /  3.2km/h 10% 0.00in /  0mm 612.0 W/m2
13:54 75.7 °F /  24.3 °C 15.3 °F /  -9.3 °C 29.99in /  1015.5hPa Calm   2.0mph /  3.2km/h 10% 0.00in /  0mm 598.0 W/m2
14:01 75.7 °F /  24.3 °C 15.3 °F /  -9.3 °C 29.99in /  1015.5hPa WSW 2.0mph /  3.2km/h 8.0mph /  12.9km/h 10% 0.00in /  0mm 587.0 W/m2
14:07 75.4 °F /  24.1 °C 15.1 °F /  -9.4 °C 29.99in /  1015.5hPa Calm   7.0mph /  11.3km/h 10% 0.00in /  0mm 573.0 W/m2
14:13 75.2 °F /  24 °C 14.9 °F /  -9.5 °C 29.99in /  1015.5hPa Calm   7.0mph /  11.3km/h 10% 0.00in /  0mm 563.0 W/m2
14:19 74.8 °F /  23.8 °C 16.9 °F /  -8.4 °C 29.99in /  1015.5hPa WSW 9.0mph /  14.5km/h 9.0mph /  14.5km/h 11% 0.00in /  0mm 545.0 W/m2
14:25 74.8 °F /  23.8 °C 14.5 °F /  -9.7 °C 29.98in /  1015.1hPa Calm   4.0mph /  6.4km/h 10% 0.00in /  0mm 531.0 W/m2
14:31 74.8 °F /  23.8 °C 14.5 °F /  -9.7 °C 29.98in /  1015.1hPa South 2.9mph /  4.7km/h 4.0mph /  6.4km/h 10% 0.00in /  0mm 519.0 W/m2
14:37 74.8 °F /  23.8 °C 14.5 °F /  -9.7 °C 29.98in /  1015.1hPa Calm   6.0mph /  9.7km/h 10% 0.00in /  0mm 503.0 W/m2
14:43 74.8 °F /  23.8 °C 14.5 °F /  -9.7 °C 29.98in /  1015.1hPa South 0.9mph /  1.4km/h 4.0mph /  6.4km/h 10% 0.00in /  0mm 487.0 W/m2
14:49 75.0 °F /  23.9 °C 14.7 °F /  -9.6 °C 29.98in /  1015.1hPa WSW 0.9mph /  1.4km/h 2.0mph /  3.2km/h 10% 0.00in /  0mm 469.0 W/m2
14:55 75.6 °F /  24.2 °C 15.1 °F /  -9.4 °C 29.98in /  1015.1hPa WSW 0.9mph /  1.4km/h 3.0mph /  4.8km/h 10% 0.00in /  0mm 452.0 W/m2
15:01 75.6 °F /  24.2 °C 12.7 °F /  -10.7 °C 29.98in /  1015.1hPa WSW 2.0mph /  3.2km/h 5.0mph /  8km/h 9% 0.00in /  0mm 436.0 W/m2
15:07 75.6 °F /  24.2 °C 15.1 °F /  -9.4 °C 29.98in /  1015.1hPa Calm   1.0mph /  1.6km/h 10% 0.00in /  0mm 415.0 W/m2
15:14 75.9 °F /  24.4 °C 13.1 °F /  -10.5 °C 29.98in /  1015.1hPa Calm   2.0mph /  3.2km/h 9% 0.00in /  0mm 396.0 W/m2
15:19 75.9 °F /  24.4 °C 13.1 °F /  -10.5 °C 29.98in /  1015.1hPa NNW 2.0mph /  3.2km/h 4.0mph /  6.4km/h 9% 0.00in /  0mm 378.0 W/m2
15:25 75.7 °F /  24.3 °C 12.9 °F /  -10.6 °C 29.98in /  1015.1hPa WNW 2.0mph /  3.2km/h 4.0mph /  6.4km/h 9% 0.00in /  0mm 359.0 W/m2
15:31 75.4 °F /  24.1 °C 12.6 °F /  -10.8 °C 29.98in /  1015.1hPa NNW 2.0mph /  3.2km/h 4.0mph /  6.4km/h 9% 0.00in /  0mm 336.0 W/m2
15:37 75.2 °F /  24 °C 14.9 °F /  -9.5 °C 29.98in /  1015.1hPa Calm   2.0mph /  3.2km/h 10% 0.00in /  0mm 160.0 W/m2
15:44 74.8 °F /  23.8 °C 14.5 °F /  -9.7 °C 29.98in /  1015.1hPa Calm   2.0mph /  3.2km/h 10% 0.00in /  0mm 44.0 W/m2
15:50 74.8 °F /  23.8 °C 14.5 °F /  -9.7 °C 29.98in /  1015.1hPa Calm   4.0mph /  6.4km/h 10% 0.00in /  0mm 40.0 W/m2
15:56 74.5 °F /  23.6 °C 14.4 °F /  -9.8 °C 29.98in /  1015.1hPa North 2.0mph /  3.2km/h 4.0mph /  6.4km/h 10% 0.00in /  0mm 37.0 W/m2
16:02 74.1 °F /  23.4 °C 11.7 °F /  -11.3 °C 29.98in /  1015.1hPa Calm   3.0mph /  4.8km/h 9% 0.00in /  0mm 35.0 W/m2
16:08 73.8 °F /  23.2 °C 13.8 °F /  -10.1 °C 29.98in /  1015.1hPa Calm   1.0mph /  1.6km/h 10% 0.00in /  0mm 33.0 W/m2
16:14 73.4 °F /  23 °C 13.5 °F /  -10.3 °C 29.98in /  1015.1hPa NW 0.9mph /  1.4km/h 6.0mph /  9.7km/h 10% 0.00in /  0mm 28.0 W/m2
16:20 73.0 °F /  22.8 °C 13.3 °F /  -10.4 °C 29.98in /  1015.1hPa North 0.9mph /  1.4km/h 5.0mph /  8km/h 10% 0.00in /  0mm 26.0 W/m2
16:27 72.7 °F /  22.6 °C 12.9 °F /  -10.6 °C 29.99in /  1015.5hPa NW 0.9mph /  1.4km/h 3.0mph /  4.8km/h 10% 0.00in /  0mm 25.0 W/m2
16:33 72.3 °F /  22.4 °C 12.7 °F /  -10.7 °C 29.99in /  1015.5hPa WNW 0.9mph /  1.4km/h 2.0mph /  3.2km/h 10% 0.00in /  0mm 21.0 W/m2
16:39 72.0 °F /  22.2 °C 12.4 °F /  -10.9 °C 29.99in /  1015.5hPa NNW 2.0mph /  3.2km/h 4.0mph /  6.4km/h 10% 0.00in /  0mm 19.0 W/m2
16:45 71.6 °F /  22 °C 14.4 °F /  -9.8 °C 30.00in /  1015.8hPa Calm     11% 0.00in /  0mm 19.0 W/m2
16:51 71.2 °F /  21.8 °C 14.0 °F /  -10 °C 30.00in /  1015.8hPa Calm   1.0mph /  1.6km/h 11% 0.00in /  0mm 16.0 W/m2
16:57 70.9 °F /  21.6 °C 15.8 °F /  -9 °C 30.00in /  1015.8hPa Calm     12% 0.00in /  0mm 16.0 W/m2
17:03 70.2 °F /  21.2 °C 17.1 °F /  -8.3 °C 30.00in /  1015.8hPa Calm     13% 0.00in /  0mm 12.0 W/m2
17:10 69.6 °F /  20.9 °C 18.3 °F /  -7.6 °C 30.00in /  1015.8hPa Calm     14% 0.00in /  0mm 11.0 W/m2
17:16 68.9 °F /  20.5 °C 16.0 °F /  -8.9 °C 30.00in /  1015.8hPa Calm     13% 0.00in /  0mm 9.0 W/m2
17:22 68.2 °F /  20.1 °C 17.2 °F /  -8.2 °C 30.00in /  1015.8hPa Calm     14% 0.00in /  0mm 5.0 W/m2
17:28 67.3 °F /  19.6 °C 18.0 °F /  -7.8 °C 30.01in /  1016.1hPa Calm     15% 0.00in /  0mm 0.0 W/m2
17:34 66.4 °F /  19.1 °C 17.2 °F /  -8.2 °C 30.01in /  1016.1hPa Calm     15% 0.00in /  0mm 0.0 W/m2
17:40 65.5 °F /  18.6 °C 16.5 °F /  -8.6 °C 30.01in /  1016.1hPa Calm     15% 0.00in /  0mm 0.0 W/m2
17:46 64.6 °F /  18.1 °C 17.4 °F /  -8.1 °C 30.01in /  1016.1hPa Calm     16% 0.00in /  0mm 0.0 W/m2
17:53 63.7 °F /  17.6 °C 16.7 °F /  -8.5 °C 30.01in /  1016.1hPa Calm     16% 0.00in /  0mm 0.0 W/m2
17:59 62.8 °F /  17.1 °C 17.2 °F /  -8.2 °C 30.01in /  1016.1hPa Calm     17% 0.00in /  0mm 0.0 W/m2
18:05 62.1 °F /  16.7 °C 18.0 °F /  -7.8 °C 30.01in /  1016.1hPa Calm     18% 0.00in /  0mm 0.0 W/m2
18:11 61.3 °F /  16.3 °C 18.7 °F /  -7.4 °C 30.01in /  1016.1hPa Calm     19% 0.00in /  0mm 0.0 W/m2
18:17 60.4 °F /  15.8 °C 18.0 °F /  -7.8 °C 30.02in /  1016.5hPa Calm     19% 0.00in /  0mm 0.0 W/m2
18:23 59.7 °F /  15.4 °C 17.4 °F /  -8.1 °C 30.02in /  1016.5hPa Calm     19% 0.00in /  0mm 0.0 W/m2
18:29 58.8 °F /  14.9 °C 17.8 °F /  -7.9 °C 30.02in /  1016.5hPa Calm     20% 0.00in /  0mm 0.0 W/m2
18:35 58.1 °F /  14.5 °C 17.2 °F /  -8.2 °C 30.02in /  1016.5hPa Calm     20% 0.00in /  0mm 0.0 W/m2
18:42 57.4 °F /  14.1 °C 16.7 °F /  -8.5 °C 30.02in /  1016.5hPa Calm     20% 0.00in /  0mm 0.0 W/m2
18:48 56.7 °F /  13.7 °C 17.2 °F /  -8.2 °C 30.03in /  1016.8hPa Calm     21% 0.00in /  0mm 0.0 W/m2
18:54 56.1 °F /  13.4 °C 16.7 °F /  -8.5 °C 30.03in /  1016.8hPa Calm     21% 0.00in /  0mm 0.0 W/m2
19:00 55.6 °F /  13.1 °C 17.2 °F /  -8.2 °C 30.03in /  1016.8hPa Calm     22% 0.00in /  0mm 0.0 W/m2
19:02 55.2 °F /  12.9 °C 17.1 °F /  -8.3 °C 30.03in /  1016.8hPa Calm     22% 0.00in /  0mm 0.0 W/m2
19:08 54.9 °F /  12.7 °C 16.7 °F /  -8.5 °C 30.03in /  1016.8hPa Calm     22% 0.00in /  0mm 0.0 W/m2
19:14 54.1 °F /  12.3 °C 16.2 °F /  -8.8 °C 30.03in /  1016.8hPa Calm     22% 0.00in /  0mm 0.0 W/m2
19:20 53.8 °F /  12.1 °C 15.8 °F /  -9 °C 30.04in /  1017.2hPa Calm     22% 0.00in /  0mm 0.0 W/m2
19:27 53.2 °F /  11.8 °C 15.4 °F /  -9.2 °C 30.04in /  1017.2hPa Calm     22% 0.00in /  0mm 0.0 W/m2
19:33 52.9 °F /  11.6 °C 15.1 °F /  -9.4 °C 30.04in /  1017.2hPa Calm     22% 0.00in /  0mm 0.0 W/m2
19:39 52.7 °F /  11.5 °C 14.9 °F /  -9.5 °C 30.04in /  1017.2hPa Calm   1.0mph /  1.6km/h 22% 0.00in /  0mm 0.0 W/m2
19:45 52.5 °F /  11.4 °C 14.7 °F /  -9.6 °C 30.04in /  1017.2hPa Calm     22% 0.00in /  0mm 0.0 W/m2
19:51 52.5 °F /  11.4 °C 14.7 °F /  -9.6 °C 30.04in /  1017.2hPa Calm     22% 0.00in /  0mm 0.0 W/m2
19:57 52.5 °F /  11.4 °C 14.7 °F /  -9.6 °C 30.05in /  1017.5hPa ENE 0.9mph /  1.4km/h 1.0mph /  1.6km/h 22% 0.00in /  0mm 0.0 W/m2
20:03 53.1 °F /  11.7 °C 15.3 °F /  -9.3 °C 30.05in /  1017.5hPa Calm     22% 0.00in /  0mm 0.0 W/m2
20:09 52.9 °F /  11.6 °C 15.1 °F /  -9.4 °C 30.06in /  1017.8hPa SSW 0.9mph /  1.4km/h 2.0mph /  3.2km/h 22% 0.00in /  0mm 0.0 W/m2
20:16 52.3 °F /  11.3 °C 14.5 °F /  -9.7 °C 30.06in /  1017.8hPa Calm   1.0mph /  1.6km/h 22% 0.00in /  0mm 0.0 W/m2
20:22 52.3 °F /  11.3 °C 14.5 °F /  -9.7 °C 30.06in /  1017.8hPa Calm     22% 0.00in /  0mm 0.0 W/m2
20:28 52.2 °F /  11.2 °C 14.4 °F /  -9.8 °C 30.06in /  1017.8hPa Calm   1.0mph /  1.6km/h 22% 0.00in /  0mm 0.0 W/m2
20:34 51.8 °F /  11 °C 14.2 °F /  -9.9 °C 30.06in /  1017.8hPa Calm     22% 0.00in /  0mm 0.0 W/m2
20:40 51.6 °F /  10.9 °C 14.0 °F /  -10 °C 30.06in /  1017.8hPa Calm     22% 0.00in /  0mm 0.0 W/m2
20:46 51.4 °F /  10.8 °C 14.9 °F /  -9.5 °C 30.06in /  1017.8hPa Calm     23% 0.00in /  0mm 0.0 W/m2
20:52 51.3 °F /  10.7 °C 14.7 °F /  -9.6 °C 30.06in /  1017.8hPa Calm     23% 0.00in /  0mm 0.0 W/m2
20:59 51.1 °F /  10.6 °C 14.5 °F /  -9.7 °C 30.06in /  1017.8hPa Calm     23% 0.00in /  0mm 0.0 W/m2
21:05 50.5 °F /  10.3 °C 14.2 °F /  -9.9 °C 30.06in /  1017.8hPa Calm     23% 0.00in /  0mm 0.0 W/m2
21:11 50.2 °F /  10.1 °C 13.8 °F /  -10.1 °C 30.06in /  1017.8hPa Calm     23% 0.00in /  0mm 0.0 W/m2
21:17 49.8 °F /  9.9 °C 13.5 °F /  -10.3 °C 30.06in /  1017.8hPa Calm     23% 0.00in /  0mm 0.0 W/m2
21:23 49.8 °F /  9.9 °C 13.5 °F /  -10.3 °C 30.06in /  1017.8hPa Calm     23% 0.00in /  0mm 0.0 W/m2
21:29 50.0 °F /  10 °C 13.6 °F /  -10.2 °C 30.06in /  1017.8hPa Calm     23% 0.00in /  0mm 0.0 W/m2
21:36 50.2 °F /  10.1 °C 13.8 °F /  -10.1 °C 30.06in /  1017.8hPa Calm   1.0mph /  1.6km/h 23% 0.00in /  0mm 0.0 W/m2
21:42 50.2 °F /  10.1 °C 13.8 °F /  -10.1 °C 30.06in /  1017.8hPa Calm   1.0mph /  1.6km/h 23% 0.00in /  0mm 0.0 W/m2
21:48 50.2 °F /  10.1 °C 13.8 °F /  -10.1 °C 30.07in /  1018.2hPa Calm   1.0mph /  1.6km/h 23% 0.00in /  0mm 0.0 W/m2
21:54 50.2 °F /  10.1 °C 13.8 °F /  -10.1 °C 30.06in /  1017.8hPa Calm     23% 0.00in /  0mm 0.0 W/m2
22:00 49.6 °F /  9.8 °C 14.4 °F /  -9.8 °C 30.07in /  1018.2hPa Calm     24% 0.00in /  0mm 0.0 W/m2
22:06 49.3 °F /  9.6 °C 14.9 °F /  -9.5 °C 30.07in /  1018.2hPa Calm     25% 0.00in /  0mm 0.0 W/m2
22:12 48.7 °F /  9.3 °C 14.5 °F /  -9.7 °C 30.07in /  1018.2hPa Calm     25% 0.00in /  0mm 0.0 W/m2
22:18 48.4 °F /  9.1 °C 15.1 °F /  -9.4 °C 30.07in /  1018.2hPa Calm     26% 0.00in /  0mm 0.0 W/m2
22:25 47.8 °F /  8.8 °C 14.5 °F /  -9.7 °C 30.07in /  1018.2hPa Calm     26% 0.00in /  0mm 0.0 W/m2
22:31 47.8 °F /  8.8 °C 13.6 °F /  -10.2 °C 30.07in /  1018.2hPa Calm     25% 0.00in /  0mm 0.0 W/m2
22:37 47.8 °F /  8.8 °C 13.6 °F /  -10.2 °C 30.07in /  1018.2hPa Calm   2.0mph /  3.2km/h 25% 0.00in /  0mm 0.0 W/m2
22:43 48.0 °F /  8.9 °C 13.8 °F /  -10.1 °C 30.07in /  1018.2hPa Calm     25% 0.00in /  0mm 0.0 W/m2
22:49 48.0 °F /  8.9 °C 13.8 °F /  -10.1 °C 30.07in /  1018.2hPa Calm     25% 0.00in /  0mm 0.0 W/m2
22:55 47.7 °F /  8.7 °C 14.4 °F /  -9.8 °C 30.07in /  1018.2hPa Calm     26% 0.00in /  0mm 0.0 W/m2
23:01 47.1 °F /  8.4 °C 14.0 °F /  -10 °C 30.07in /  1018.2hPa Calm     26% 0.00in /  0mm 0.0 W/m2
23:08 46.9 °F /  8.3 °C 13.8 °F /  -10.1 °C 30.07in /  1018.2hPa Calm     26% 0.00in /  0mm 0.0 W/m2
23:14 47.1 °F /  8.4 °C 14.0 °F /  -10 °C 30.06in /  1017.8hPa Calm     26% 0.00in /  0mm 0.0 W/m2
23:20 47.1 °F /  8.4 °C 14.0 °F /  -10 °C 30.06in /  1017.8hPa Calm     26% 0.00in /  0mm 0.0 W/m2
23:26 47.7 °F /  8.7 °C 13.5 °F /  -10.3 °C 30.06in /  1017.8hPa Calm   1.0mph /  1.6km/h 25% 0.00in /  0mm 0.0 W/m2
23:32 47.8 °F /  8.8 °C 14.5 °F /  -9.7 °C 30.06in /  1017.8hPa Calm     26% 0.00in /  0mm 0.0 W/m2
23:38 47.7 °F /  8.7 °C 14.4 °F /  -9.8 °C 30.06in /  1017.8hPa Calm     26% 0.00in /  0mm 0.0 W/m2
23:44 47.5 °F /  8.6 °C 14.4 °F /  -9.8 °C 30.06in /  1017.8hPa Calm     26% 0.00in /  0mm 0.0 W/m2
23:50 47.1 °F /  8.4 °C 14.9 °F /  -9.5 °C 30.06in /  1017.8hPa Calm     27% 0.00in /  0mm 0.0 W/m2
23:56 46.8 °F /  8.2 °C 14.5 °F /  -9.7 °C 30.06in /  1017.8hPa Calm     27% 0.00in /  0mm 0.0 W/m2
Olympia, Windhoek, Namibia
Compliments of Weather Underground - 3 mb